Time;durP1;ratioP1;P1;durP2;ratioP2;P2;SDS_P1;SDS_P2;PMS_P1;PMS_P2;Temp;Humidity;BMP_temperature;BMP_pressure;BME280_temperature;BME280_humidity;BME280_pressure;Samples;Min_cycle;Max_cycle;Signal;HPM_P1;HPM_P2
2022/01/22 00:00:59;;;;;;;3.70;2.00;;;16.20;61.80;;;;;;5078269;28;20524;-83
2022/01/22 00:03:27;;;;;;;6.33;1.80;;;16.20;61.80;;;;;;5078021;28;20484;-83
2022/01/22 00:05:55;;;;;;;2.03;1.63;;;16.20;61.90;;;;;;5078598;28;20456;-83
2022/01/22 00:08:23;;;;;;;1.70;1.60;;;16.20;61.60;;;;;;5078987;28;20473;-83
2022/01/22 00:10:52;;;;;;;1.77;1.63;;;16.20;61.70;;;;;;5077941;28;20477;-83
2022/01/22 00:16:07;;;;;;;1.90;1.70;;;16.20;61.70;;;;;;5077729;28;20453;-82
2022/01/22 00:18:35;;;;;;;1.63;1.53;;;16.20;61.80;;;;;;5078028;28;20473;-82
2022/01/22 00:21:03;;;;;;;2.37;2.17;;;16.20;61.70;;;;;;5080263;28;20445;-83
2022/01/22 00:23:32;;;;;;;1.60;1.50;;;16.20;61.90;;;;;;5077688;28;20495;-83
2022/01/22 00:26:00;;;;;;;2.50;1.40;;;16.30;61.80;;;;;;5078439;28;20426;-83
2022/01/22 00:28:28;;;;;;;1.90;1.80;;;16.30;61.80;;;;;;5078190;28;20485;-83
2022/01/22 00:30:56;;;;;;;1.40;1.30;;;16.30;61.90;;;;;;5078249;28;20469;-83
2022/01/22 00:33:25;;;;;;;2.70;1.60;;;16.30;61.90;;;;;;5077094;28;20496;-83
2022/01/22 00:35:53;;;;;;;1.73;1.53;;;16.30;61.90;;;;;;5078422;28;20468;-83
2022/01/22 00:38:20;;;;;;;2.03;1.83;;;16.30;61.80;;;;;;5077241;28;20430;-83
2022/01/22 00:40:51;;;;;;;1.93;1.83;;;16.30;61.80;;;;;;5077440;28;20884;-83
2022/01/22 00:43:28;;;;;;;2.17;2.00;;;16.30;61.80;;;;;;5077268;28;20474;-83
2022/01/22 00:45:56;;;;;;;1.70;1.60;;;16.30;61.90;;;;;;5077682;28;20425;-83
2022/01/22 00:48:26;;;;;;;3.37;2.03;;;16.30;61.90;;;;;;5077398;28;20430;-83
2022/01/22 00:50:56;;;;;;;1.40;1.30;;;16.30;62.00;;;;;;5078014;28;20477;-83
2022/01/22 00:53:24;;;;;;;2.13;1.93;;;16.30;61.90;;;;;;5077819;28;20464;-83
2022/01/22 00:55:52;;;;;;;2.00;1.87;;;16.30;61.90;;;;;;5077675;28;20465;-82
2022/01/22 00:58:19;;;;;;;1.90;1.50;;;16.30;61.90;;;;;;5078107;28;20465;-83
2022/01/22 01:00:48;;;;;;;2.00;1.90;;;16.30;61.90;;;;;;5077156;28;20473;-83
2022/01/22 01:03:16;;;;;;;1.60;1.50;;;16.30;61.80;;;;;;5077554;28;20473;-83
2022/01/22 01:05:45;;;;;;;1.60;1.50;;;16.40;61.90;;;;;;5077317;28;20444;-83
2022/01/22 01:08:13;;;;;;;1.73;1.63;;;16.40;62.10;;;;;;5077555;28;20442;-83
2022/01/22 01:10:41;;;;;;;1.40;1.30;;;16.40;61.90;;;;;;5077545;28;20473;-83
2022/01/22 01:13:09;;;;;;;1.70;1.50;;;16.40;61.90;;;;;;5077409;28;20453;-83
2022/01/22 01:15:42;;;;;;;2.33;1.70;;;16.40;62.00;;;;;;5076864;28;20495;-83
2022/01/22 01:32:19;;;;;;;1.67;1.57;;;16.40;62.00;;;;;;5056872;28;20443;-83
2022/01/22 01:34:49;;;;;;;1.70;1.60;;;16.40;62.10;;;;;;5066022;28;20455;-83
2022/01/22 01:37:19;;;;;;;1.60;1.60;;;16.40;62.00;;;;;;5056863;28;20423;-83
2022/01/22 01:39:50;;;;;;;1.63;1.53;;;16.40;62.10;;;;;;5054733;28;20450;-83
2022/01/22 01:42:28;;;;;;;1.97;1.43;;;16.50;62.10;;;;;;5058389;28;20517;-83
2022/01/22 01:45:00;;;;;;;3.07;1.50;;;16.50;62.10;;;;;;5057797;28;20442;-83
2022/01/22 01:47:28;;;;;;;1.90;1.10;;;16.50;62.10;;;;;;5059368;28;20457;-83
2022/01/22 01:49:56;;;;;;;1.53;1.40;;;16.50;62.10;;;;;;5059163;28;20474;-83
2022/01/22 01:52:34;;;;;;;1.37;1.27;;;16.50;62.20;;;;;;5056556;28;20991;-84
2022/01/22 01:55:08;;;;;;;1.67;1.57;;;16.50;62.10;;;;;;5055969;28;20501;-83
2022/01/22 01:57:43;;;;;;;1.60;1.50;;;16.50;62.20;;;;;;5055547;28;20439;-83
2022/01/22 02:00:14;;;;;;;3.43;1.60;;;16.50;62.10;;;;;;5056521;28;20418;-83
2022/01/22 02:02:42;;;;;;;1.83;1.73;;;16.50;62.30;;;;;;5056423;28;20529;-82
2022/01/22 02:05:11;;;;;;;1.73;1.63;;;16.50;62.20;;;;;;5056668;28;20469;-83
2022/01/22 02:07:42;;;;;;;1.77;1.60;;;16.50;62.10;;;;;;5056963;28;20500;-83
2022/01/22 02:10:15;;;;;;;1.50;1.40;;;16.50;62.10;;;;;;5057353;28;20499;-83
2022/01/22 02:23:59;;;;;;;1.70;1.60;;;16.50;62.20;;;;;;5077023;28;20496;-83
2022/01/22 02:26:28;;;;;;;1.60;1.50;;;16.50;62.30;;;;;;5076889;28;20960;-83
2022/01/22 02:28:56;;;;;;;1.67;1.50;;;16.50;62.20;;;;;;5097004;28;20526;-83
2022/01/22 02:31:30;;;;;;;1.73;1.50;;;16.50;62.40;;;;;;5097889;28;20938;-83
2022/01/22 02:34:07;;;;;;;1.70;1.60;;;16.50;62.40;;;;;;5097525;28;20495;-83
2022/01/22 02:36:41;;;;;;;2.30;1.63;;;16.50;62.30;;;;;;5097441;28;20467;-83
2022/01/22 02:39:13;;;;;;;2.60;1.50;;;16.60;62.30;;;;;;5080958;28;20502;-83
2022/01/22 02:41:43;;;;;;;1.60;1.47;;;16.60;62.10;;;;;;5077104;28;20473;-83
2022/01/22 02:44:15;;;;;;;1.83;1.37;;;16.60;62.90;;;;;;5077300;28;20540;-83
2022/01/22 02:46:45;;;;;;;1.60;1.50;;;16.60;62.30;;;;;;5077385;28;20491;-83
2022/01/22 02:49:13;;;;;;;3.07;1.40;;;16.60;62.20;;;;;;5077830;28;20501;-83
2022/01/22 02:51:42;;;;;;;1.50;1.40;;;16.60;62.30;;;;;;5077391;28;20532;-83
2022/01/22 02:54:10;;;;;;;1.30;1.20;;;16.60;62.20;;;;;;5077448;28;20481;-83
2022/01/22 02:56:38;;;;;;;1.30;1.20;;;16.60;62.50;;;;;;5077268;28;20517;-82
2022/01/22 02:59:20;;;;;;;1.47;1.37;;;16.60;62.20;;;;;;5077243;28;20482;-83
2022/01/22 03:01:48;;;;;;;1.40;1.30;;;16.60;62.20;;;;;;5061372;28;20473;-83
2022/01/22 03:04:15;;;;;;;1.60;1.50;;;16.60;62.30;;;;;;5062124;28;20507;-83
2022/01/22 03:06:46;;;;;;;1.47;1.37;;;16.60;62.50;;;;;;5075632;28;20493;-83
2022/01/22 03:09:15;;;;;;;1.70;1.60;;;16.60;62.40;;;;;;5062967;28;20456;-83
2022/01/22 03:11:59;;;;;;;2.00;1.40;;;16.60;62.20;;;;;;5077168;28;20545;-83
2022/01/22 03:17:28;;;;;;;1.60;1.50;;;16.60;62.30;;;;;;5054560;28;20481;-82
2022/01/22 03:20:04;;;;;;;2.60;1.60;;;16.60;62.50;;;;;;5072697;28;20540;-83
2022/01/22 03:22:54;;;;;;;1.50;1.40;;;16.60;62.50;;;;;;5070983;28;20449;-82
2022/01/22 03:28:09;;;;;;;1.20;1.20;;;16.60;62.40;;;;;;5078559;28;20987;-84
2022/01/22 03:30:36;;;;;;;1.57;1.40;;;16.60;62.60;;;;;;5079369;28;20516;-84
2022/01/22 03:33:04;;;;;;;7.00;1.37;;;16.60;62.60;;;;;;5079251;28;20556;-84
2022/01/22 03:35:35;;;;;;;1.50;1.40;;;16.60;62.60;;;;;;5079266;28;20500;-84
2022/01/22 03:38:04;;;;;;;1.43;1.33;;;16.60;62.60;;;;;;5078142;28;20452;-84
2022/01/22 03:40:32;;;;;;;1.50;1.40;;;16.70;62.70;;;;;;5078170;28;20520;-84
2022/01/22 03:43:00;;;;;;;1.67;1.20;;;16.70;62.70;;;;;;5069639;28;20493;-84
2022/01/22 03:45:28;;;;;;;2.17;1.50;;;16.70;62.60;;;;;;5079364;28;20531;-84
2022/01/22 03:47:57;;;;;;;2.33;1.63;;;16.70;62.60;;;;;;5082440;28;20437;-84
2022/01/22 03:50:25;;;;;;;1.30;1.20;;;16.70;62.80;;;;;;5078919;28;20462;-83
2022/01/22 03:52:53;;;;;;;3.53;1.23;;;16.70;62.40;;;;;;5079045;28;20461;-84
2022/01/22 03:55:33;;;;;;;1.73;1.30;;;16.70;62.60;;;;;;5078786;28;20450;-84
2022/01/22 03:58:02;;;;;;;1.47;1.10;;;16.70;62.60;;;;;;5078986;28;20461;-84
2022/01/22 04:00:30;;;;;;;1.80;1.30;;;16.60;62.60;;;;;;5079477;28;20438;-84
2022/01/22 04:03:25;;;;;;;1.80;1.40;;;16.70;62.60;;;;;;5078398;28;20496;-84
2022/01/22 04:06:12;;;;;;;2.50;1.50;;;16.60;62.60;;;;;;5072408;28;20508;-84
2022/01/22 04:08:40;;;;;;;1.10;1.00;;;16.70;62.90;;;;;;5075868;28;20457;-84
2022/01/22 04:11:14;;;;;;;1.43;1.20;;;16.60;62.60;;;;;;5075487;28;20532;-84
2022/01/22 04:13:44;;;;;;;1.47;1.30;;;16.60;62.70;;;;;;5076211;28;20450;-84
2022/01/22 04:16:13;;;;;;;1.60;1.30;;;16.60;62.70;;;;;;5076899;28;20429;-84
2022/01/22 04:27:08;;;;;;;1.90;1.20;;;16.70;62.90;;;;;;5076169;28;20432;-84
2022/01/22 04:29:45;;;;;;;1.40;1.30;;;16.60;62.90;;;;;;5077115;28;20512;-84
2022/01/22 04:32:13;;;;;;;1.20;1.10;;;16.70;62.90;;;;;;5075130;28;20536;-84
2022/01/22 04:34:41;;;;;;;1.50;1.40;;;16.60;62.70;;;;;;5074603;28;20507;-84
2022/01/22 04:37:09;;;;;;;5.30;1.30;;;16.60;62.90;;;;;;5077620;28;20540;-85
2022/01/22 04:39:37;;;;;;;1.07;1.07;;;16.60;63.00;;;;;;5074051;28;20484;-84
2022/01/22 04:42:07;;;;;;;2.13;0.90;;;16.60;63.00;;;;;;5074339;28;20540;-84
2022/01/22 04:44:42;;;;;;;1.33;1.10;;;16.70;63.10;;;;;;5073683;28;20581;-84
2022/01/22 04:47:28;;;;;;;1.27;1.17;;;16.70;63.00;;;;;;5073661;28;20429;-84
2022/01/22 04:55:31;;;;;;;1.20;1.10;;;16.70;63.20;;;;;;5075261;28;20474;-83
2022/01/22 04:58:03;;;;;;;1.10;1.00;;;16.70;62.90;;;;;;5078189;28;20446;-84
2022/01/22 05:00:31;;;;;;;2.60;1.30;;;16.60;63.00;;;;;;5076338;28;20520;-84
2022/01/22 05:02:59;;;;;;;1.40;1.30;;;16.60;63.00;;;;;;5080933;28;20469;-84
2022/01/22 05:05:29;;;;;;;1.27;1.17;;;16.60;63.10;;;;;;5090198;28;20560;-84
2022/01/22 05:07:57;;;;;;;1.93;1.20;;;16.60;63.10;;;;;;5062239;28;20492;-84
2022/01/22 05:10:25;;;;;;;1.57;1.20;;;16.60;63.10;;;;;;5057193;28;20442;-84
2022/01/22 05:12:53;;;;;;;1.10;1.10;;;16.60;63.10;;;;;;5057521;28;20509;-84
2022/01/22 05:15:22;;;;;;;2.00;1.30;;;16.70;63.20;;;;;;5073189;28;20458;-84
2022/01/22 05:17:50;;;;;;;3.27;1.40;;;16.70;63.10;;;;;;5077211;28;20437;-84
2022/01/22 05:20:23;;;;;;;1.07;1.07;;;16.70;63.20;;;;;;5078116;28;20462;-84
2022/01/22 05:22:58;;;;;;;1.53;1.30;;;16.60;63.00;;;;;;5078322;28;20503;-84
2022/01/22 05:25:31;;;;;;;1.13;1.00;;;16.60;63.10;;;;;;5077713;28;21018;-84
2022/01/22 05:28:19;;;;;;;1.13;1.03;;;16.60;63.10;;;;;;5078277;28;20456;-84
2022/01/22 05:31:05;;;;;;;1.20;1.20;;;16.60;63.20;;;;;;5076523;28;20441;-84
2022/01/22 05:39:01;;;;;;;1.73;1.10;;;16.70;63.10;;;;;;5093197;28;20434;-84
2022/01/22 05:41:29;;;;;;;1.23;1.13;;;16.70;63.20;;;;;;5093895;28;20883;-83
2022/01/22 05:43:57;;;;;;;1.27;1.17;;;16.70;63.20;;;;;;5094115;28;20481;-85
2022/01/22 05:46:27;;;;;;;1.20;1.20;;;16.60;63.20;;;;;;5093579;28;20481;-83
2022/01/22 05:48:54;;;;;;;1.23;1.13;;;16.60;63.10;;;;;;5093769;28;20430;-85
2022/01/22 05:51:22;;;;;;;1.20;1.10;;;16.60;64.00;;;;;;5093670;28;20460;-83
2022/01/22 05:54:13;;;;;;;1.77;1.30;;;16.70;63.30;;;;;;5093402;28;20457;-85
2022/01/22 05:59:39;;;;;;;1.70;1.07;;;16.70;63.20;;;;;;5093551;28;20461;-83
2022/01/22 06:02:09;;;;;;;1.30;1.30;;;16.60;63.00;;;;;;5093212;28;20461;-84
2022/01/22 06:04:38;;;;;;;1.20;1.10;;;16.70;63.30;;;;;;5093883;28;20538;-83
2022/01/22 06:07:06;;;;;;;1.20;1.10;;;16.60;63.10;;;;;;5093826;28;20853;-85
2022/01/22 06:09:36;;;;;;;1.03;0.93;;;16.70;63.30;;;;;;5093739;28;20448;-84
2022/01/22 06:12:15;;;;;;;1.63;1.07;;;16.70;63.20;;;;;;5093693;28;20438;-83
2022/01/22 06:14:43;;;;;;;1.33;1.23;;;16.70;63.40;;;;;;5094122;28;20465;-83
2022/01/22 06:17:12;;;;;;;1.10;1.10;;;16.70;63.20;;;;;;5095049;28;20445;-83
2022/01/22 06:19:40;;;;;;;1.03;1.03;;;16.70;63.20;;;;;;5094524;28;20460;-83
2022/01/22 06:22:08;;;;;;;1.43;1.33;;;16.70;63.20;;;;;;5084682;28;20485;-84
2022/01/22 06:24:36;;;;;;;1.40;1.10;;;16.70;64.10;;;;;;5082824;28;20450;-84
2022/01/22 06:27:04;;;;;;;1.20;1.10;;;16.70;63.20;;;;;;5075584;28;20492;-83
2022/01/22 06:29:32;;;;;;;1.10;1.10;;;16.70;63.10;;;;;;5075945;28;20477;-85
2022/01/22 06:32:00;;;;;;;1.20;1.10;;;16.70;63.30;;;;;;5074700;28;20435;-84
2022/01/22 06:34:30;;;;;;;3.10;1.40;;;16.70;63.30;;;;;;5074357;28;20450;-84
2022/01/22 06:36:58;;;;;;;2.00;1.20;;;16.60;63.10;;;;;;5074086;28;20446;-83
2022/01/22 06:39:26;;;;;;;1.53;1.30;;;16.70;63.30;;;;;;5074461;28;20438;-83
2022/01/22 06:41:53;;;;;;;1.40;1.30;;;16.70;63.50;;;;;;5074432;28;20439;-83
2022/01/22 06:44:22;;;;;;;1.70;1.50;;;16.70;63.30;;;;;;5073968;28;20478;-83
2022/01/22 06:46:53;;;;;;;1.27;1.10;;;16.70;63.10;;;;;;5073033;28;20488;-84
2022/01/22 06:49:21;;;;;;;1.00;0.90;;;16.70;63.30;;;;;;5074083;28;20434;-83
2022/01/22 06:51:51;;;;;;;1.40;1.30;;;16.70;63.50;;;;;;5073569;28;20439;-84
2022/01/22 06:54:21;;;;;;;1.37;1.17;;;16.70;63.40;;;;;;5073615;28;20466;-84
2022/01/22 06:56:49;;;;;;;1.37;1.27;;;16.70;63.30;;;;;;5073783;28;20427;-84
2022/01/22 06:59:17;;;;;;;2.10;1.10;;;16.70;63.20;;;;;;5073389;28;20462;-83
2022/01/22 07:01:45;;;;;;;1.20;1.10;;;16.70;63.30;;;;;;5081653;28;20438;-82
2022/01/22 07:04:15;;;;;;;1.40;1.23;;;16.70;63.40;;;;;;5103769;28;20456;-82
2022/01/22 07:06:42;;;;;;;1.53;1.43;;;16.70;63.40;;;;;;5112057;28;20491;-82
2022/01/22 07:09:12;;;;;;;1.63;1.47;;;16.60;63.30;;;;;;5097665;28;20422;-83
2022/01/22 07:11:39;;;;;;;1.80;1.40;;;16.70;63.50;;;;;;5090503;28;20418;-83
2022/01/22 07:14:07;;;;;;;1.67;1.57;;;16.60;63.30;;;;;;5091429;28;20450;-83
2022/01/22 07:16:35;;;;;;;1.50;1.40;;;16.70;63.50;;;;;;5092946;28;20429;-83
2022/01/22 07:19:03;;;;;;;1.67;1.57;;;16.70;63.20;;;;;;5093284;28;20445;-82
2022/01/22 07:21:32;;;;;;;1.30;1.20;;;16.70;63.40;;;;;;5092188;28;20452;-83
2022/01/22 07:26:52;;;;;;;1.43;1.33;;;16.70;63.40;;;;;;5076102;28;20458;-83
2022/01/22 07:29:20;;;;;;;1.30;1.20;;;16.70;63.40;;;;;;5093052;28;20486;-83
2022/01/22 07:31:48;;;;;;;1.30;1.20;;;16.70;63.30;;;;;;5092671;28;20426;-82
2022/01/22 07:34:15;;;;;;;1.90;1.53;;;16.70;63.40;;;;;;5092939;28;20465;-83
2022/01/22 07:36:44;;;;;;;1.60;1.50;;;16.70;63.50;;;;;;5092823;28;20426;-83
2022/01/22 07:39:11;;;;;;;1.50;1.40;;;16.70;63.40;;;;;;5093450;28;20429;-83
2022/01/22 07:41:39;;;;;;;1.57;1.47;;;16.70;63.50;;;;;;5093438;28;20461;-83
2022/01/22 07:44:08;;;;;;;1.40;1.30;;;16.70;63.40;;;;;;5091704;28;20470;-82
2022/01/22 07:46:36;;;;;;;1.50;1.40;;;16.70;63.40;;;;;;5092566;28;20457;-83
2022/01/22 07:49:06;;;;;;;1.50;1.40;;;16.70;63.50;;;;;;5092265;28;20491;-82
2022/01/22 07:51:33;;;;;;;1.40;1.30;;;16.70;63.30;;;;;;5092723;28;20450;-82
2022/01/22 07:54:01;;;;;;;2.30;1.43;;;16.70;63.40;;;;;;5092618;28;20456;-83
2022/01/22 07:56:29;;;;;;;1.27;1.17;;;16.70;63.40;;;;;;5092479;28;20437;-83
2022/01/22 07:58:59;;;;;;;1.30;1.20;;;16.70;63.40;;;;;;5091900;28;20492;-83
2022/01/22 08:01:28;;;;;;;2.00;1.90;;;16.70;63.40;;;;;;5092518;28;20422;-84
2022/01/22 08:03:56;;;;;;;3.47;1.43;;;16.70;63.40;;;;;;5092137;28;20468;-82
2022/01/22 08:06:24;;;;;;;1.47;1.37;;;16.70;63.40;;;;;;5092574;28;20496;-82
2022/01/22 08:08:52;;;;;;;1.60;1.50;;;16.70;63.50;;;;;;5092960;28;20422;-82
2022/01/22 08:11:20;;;;;;;1.80;1.60;;;16.80;63.40;;;;;;5092547;28;20436;-82
2022/01/22 08:13:48;;;;;;;1.60;1.33;;;16.70;63.40;;;;;;5092159;28;20434;-83
2022/01/22 08:16:16;;;;;;;1.73;1.30;;;16.80;63.50;;;;;;5091102;28;20437;-82
2022/01/22 08:18:46;;;;;;;1.30;1.20;;;16.80;63.40;;;;;;5091702;28;20433;-82
2022/01/22 08:21:14;;;;;;;1.33;1.23;;;16.80;63.40;;;;;;5091696;28;20438;-82
2022/01/22 08:23:42;;;;;;;1.40;1.30;;;16.80;63.30;;;;;;5089441;28;20469;-82
2022/01/22 08:26:11;;;;;;;1.23;1.13;;;16.80;63.30;;;;;;5087824;28;20433;-82
2022/01/22 08:28:57;;;;;;;1.30;1.20;;;16.80;63.20;;;;;;5092398;28;20458;-82
2022/01/22 08:31:38;;;;;;;1.73;1.23;;;16.80;63.40;;;;;;5095680;28;20424;-81
2022/01/22 08:36:54;;;;;;;1.13;1.13;;;16.80;63.50;;;;;;5087313;28;20586;-81
2022/01/22 08:39:22;;;;;;;1.73;1.63;;;16.80;63.70;;;;;;5088800;28;20421;-82
2022/01/22 08:41:54;;;;;;;2.30;1.17;;;16.90;63.60;;;;;;5088321;28;20425;-81
2022/01/22 08:44:21;;;;;;;1.47;1.37;;;16.90;63.30;;;;;;5087827;28;20450;-82
2022/01/22 08:46:50;;;;;;;1.30;1.20;;;16.90;63.40;;;;;;5089232;28;20476;-81
2022/01/22 08:49:19;;;;;;;1.17;1.13;;;16.90;63.40;;;;;;5089543;28;20402;-82
2022/01/22 08:51:47;;;;;;;1.50;1.40;;;17.00;63.60;;;;;;5089861;28;20425;-81
2022/01/22 08:54:14;;;;;;;1.40;1.23;;;17.00;63.30;;;;;;5083628;28;20544;-81
2022/01/22 08:56:43;;;;;;;1.40;1.30;;;17.00;63.30;;;;;;5078604;28;20438;-82
2022/01/22 08:59:12;;;;;;;1.10;1.10;;;17.00;63.30;;;;;;5079923;28;20421;-81
2022/01/22 09:01:40;;;;;;;3.80;1.57;;;17.00;63.40;;;;;;5078021;28;20422;-81
2022/01/22 09:04:09;;;;;;;1.63;1.53;;;17.00;63.30;;;;;;5079728;28;20450;-81
2022/01/22 09:06:38;;;;;;;1.40;1.30;;;17.00;63.30;;;;;;5080086;28;20497;-80
2022/01/22 09:09:10;;;;;;;1.27;1.20;;;17.10;63.60;;;;;;5073027;28;20454;-81
2022/01/22 09:11:39;;;;;;;1.40;1.30;;;17.10;63.20;;;;;;5081734;28;20445;-81
2022/01/22 09:14:08;;;;;;;3.77;1.20;;;17.10;63.30;;;;;;5077693;28;20476;-82
2022/01/22 09:16:36;;;;;;;1.53;1.43;;;17.10;63.20;;;;;;5079898;28;20441;-81
2022/01/22 09:19:06;;;;;;;1.37;1.23;;;17.10;63.90;;;;;;5081246;28;20442;-81
2022/01/22 09:21:34;;;;;;;2.27;1.40;;;17.10;63.20;;;;;;5081185;28;20434;-82
2022/01/22 09:24:04;;;;;;;1.13;1.13;;;17.10;63.20;;;;;;5082463;28;20473;-82
2022/01/22 09:26:32;;;;;;;2.13;1.40;;;17.20;63.30;;;;;;5081326;28;20461;-81
2022/01/22 09:29:00;;;;;;;1.37;1.27;;;17.20;63.20;;;;;;5081556;28;20429;-80
2022/01/22 09:31:29;;;;;;;1.50;1.40;;;17.20;63.40;;;;;;5080250;28;20448;-81
2022/01/22 09:33:59;;;;;;;1.30;1.20;;;17.30;63.30;;;;;;5085706;28;21020;-82
2022/01/22 09:36:28;;;;;;;2.60;1.37;;;17.40;63.30;;;;;;5084444;28;20445;-81
2022/01/22 09:38:56;;;;;;;1.60;1.50;;;17.40;62.90;;;;;;5087239;28;20450;-81
2022/01/22 09:41:27;;;;;;;2.20;1.60;;;17.50;62.90;;;;;;5087522;28;20438;-82
2022/01/22 09:43:55;;;;;;;1.37;1.27;;;17.40;62.60;;;;;;5088760;28;20449;-82
2022/01/22 09:46:23;;;;;;;1.43;1.33;;;17.40;62.60;;;;;;5088069;28;20441;-81
2022/01/22 09:48:52;;;;;;;1.40;1.30;;;17.40;62.90;;;;;;5090134;28;20508;-82
2022/01/22 09:51:20;;;;;;;1.37;1.27;;;17.50;62.90;;;;;;5090269;28;20467;-82
2022/01/22 09:53:48;;;;;;;1.40;1.30;;;17.50;62.90;;;;;;5090095;28;20461;-81
2022/01/22 09:56:19;;;;;;;1.30;1.20;;;17.50;62.80;;;;;;5089871;28;20449;-81
2022/01/22 09:58:48;;;;;;;1.20;1.10;;;17.50;62.50;;;;;;5090086;28;20432;-83
2022/01/22 10:01:24;;;;;;;1.70;1.60;;;17.50;62.50;;;;;;5077383;28;20469;-83
2022/01/22 10:03:55;;;;;;;2.30;1.83;;;17.60;62.70;;;;;;5069353;28;20545;-82
2022/01/22 10:06:24;;;;;;;12.60;7.03;;;17.70;62.80;;;;;;5067987;28;20473;-81
2022/01/22 10:08:55;;;;;;;10.13;6.47;;;18.00;65.40;;;;;;5069791;28;20477;-81
2022/01/22 10:11:27;;;;;;;14.30;6.90;;;18.30;64.80;;;;;;5069969;28;20430;-81
2022/01/22 10:13:59;;;;;;;8.37;6.93;;;18.50;64.20;;;;;;5070296;28;20446;-82
2022/01/22 10:16:28;;;;;;;29.77;8.97;;;18.60;63.70;;;;;;5060973;28;20439;-81
2022/01/22 10:19:13;;;;;;;25.63;9.87;;;18.70;71.40;;;;;;5060605;28;20453;-83
2022/01/22 10:21:43;;;;;;;20.23;11.00;;;19.50;69.00;;;;;;5067712;28;21128;-83
2022/01/22 10:24:35;;;;;;;25.70;11.17;;;19.70;66.50;;;;;;5086719;28;20450;-82
2022/01/22 10:27:23;;;;;;;20.70;11.10;;;19.80;67.10;;;;;;5064183;28;20458;-83
2022/01/22 10:29:55;;;;;;;25.27;10.90;;;20.00;67.70;;;;;;5063925;28;20431;-82
2022/01/22 10:32:30;;;;;;;31.10;10.60;;;20.20;68.60;;;;;;5065824;28;20434;-83
2022/01/22 10:35:07;;;;;;;14.70;7.40;;;20.10;67.90;;;;;;5083074;28;20532;-83
2022/01/22 10:37:35;;;;;;;9.40;6.00;;;20.10;67.60;;;;;;5082395;28;20429;-84
2022/01/22 10:40:23;;;;;;;8.23;5.63;;;20.10;66.40;;;;;;5080977;28;20469;-83
2022/01/22 10:42:51;;;;;;;7.60;4.50;;;20.00;65.70;;;;;;5082840;28;20440;-82
2022/01/22 10:45:26;;;;;;;9.00;4.27;;;19.80;65.60;;;;;;5083350;28;20529;-83
2022/01/22 10:48:15;;;;;;;8.10;4.17;;;19.80;65.70;;;;;;5080700;28;20520;-83
2022/01/22 10:50:43;;;;;;;9.17;4.30;;;19.70;64.80;;;;;;5085588;28;20517;-84
2022/01/22 10:53:11;;;;;;;15.33;3.40;;;19.90;65.40;;;;;;5088598;28;20480;-83
2022/01/22 10:56:00;;;;;;;5.00;3.70;;;20.00;64.50;;;;;;5082693;28;20525;-84
2022/01/22 10:58:28;;;;;;;3.60;2.80;;;20.10;64.10;;;;;;5082183;28;20429;-83
2022/01/22 11:01:00;;;;;;;11.60;2.83;;;20.10;63.40;;;;;;5082270;28;20426;-83
2022/01/22 11:03:28;;;;;;;5.17;2.90;;;19.90;62.90;;;;;;5081989;28;20465;-86
2022/01/22 11:05:57;;;;;;;4.37;3.00;;;20.00;62.50;;;;;;5085630;28;20433;-86
2022/01/22 11:08:25;;;;;;;3.73;3.20;;;19.90;62.60;;;;;;5082343;28;20556;-85
2022/01/22 11:10:53;;;;;;;8.03;3.10;;;19.80;61.90;;;;;;5084499;28;20430;-84
2022/01/22 11:13:22;;;;;;;12.13;3.43;;;19.80;61.80;;;;;;5082130;28;20516;-84
2022/01/22 11:15:50;;;;;;;5.40;3.27;;;19.80;61.30;;;;;;5079740;28;20511;-83
2022/01/22 11:18:22;;;;;;;5.23;3.20;;;19.80;61.60;;;;;;5078758;28;20433;-84
2022/01/22 11:20:51;;;;;;;4.70;3.57;;;19.80;61.10;;;;;;5078484;28;20424;-83
2022/01/22 11:23:19;;;;;;;6.67;3.17;;;19.80;61.80;;;;;;5080110;28;20469;-86
2022/01/22 11:25:47;;;;;;;9.07;2.97;;;19.70;62.00;;;;;;5081220;28;20461;-83
2022/01/22 11:28:15;;;;;;;5.13;3.00;;;19.60;61.80;;;;;;5081363;28;20470;-83
2022/01/22 11:30:45;;;;;;;7.73;3.27;;;19.60;60.50;;;;;;5089881;28;20465;-84
2022/01/22 11:33:15;;;;;;;5.60;2.73;;;19.60;60.40;;;;;;5085618;28;20434;-83
2022/01/22 11:35:50;;;;;;;3.00;2.63;;;19.60;61.00;;;;;;5079508;28;20449;-83
2022/01/22 11:38:21;;;;;;;8.23;2.90;;;19.60;60.80;;;;;;5081181;28;20460;-83
2022/01/22 11:41:03;;;;;;;9.00;4.63;;;19.60;60.80;;;;;;5076950;28;20442;-84
2022/01/22 11:43:51;;;;;;;6.93;4.23;;;19.60;60.70;;;;;;5080980;28;20492;-82
2022/01/22 11:46:26;;;;;;;5.10;4.07;;;19.60;59.80;;;;;;5085406;28;20489;-82
2022/01/22 11:49:18;;;;;;;4.00;3.60;;;19.80;60.20;;;;;;5090765;28;20574;-83
2022/01/22 11:51:49;;;;;;;3.40;3.03;;;19.90;59.80;;;;;;5090508;28;20457;-82
2022/01/22 11:54:21;;;;;;;3.37;2.80;;;20.00;59.60;;;;;;5083783;28;20475;-83
2022/01/22 11:56:51;;;;;;;2.77;2.53;;;20.10;59.70;;;;;;5087692;28;20434;-82
2022/01/22 11:59:29;;;;;;;4.97;2.90;;;20.20;59.50;;;;;;5085671;28;20461;-83
2022/01/22 12:02:07;;;;;;;2.50;2.07;;;20.30;59.30;;;;;;5075499;28;20429;-84
2022/01/22 12:04:49;;;;;;;3.33;2.03;;;20.30;58.70;;;;;;5084010;28;20465;-82
2022/01/22 12:07:20;;;;;;;2.80;2.00;;;20.30;58.10;;;;;;5089977;28;20444;-83
2022/01/22 12:10:21;;;;;;;3.73;1.97;;;20.30;58.70;;;;;;5093265;28;20477;-84
2022/01/22 12:15:51;;;;;;;3.40;2.13;;;20.40;57.90;;;;;;5080543;28;20540;-85
2022/01/22 12:18:23;;;;;;;2.80;1.73;;;20.20;57.60;;;;;;5077105;28;20491;-85
2022/01/22 12:23:50;;;;;;;2.70;1.90;;;20.20;57.90;;;;;;5080534;28;20477;-84
2022/01/22 12:26:39;;;;;;;4.00;2.10;;;20.40;57.80;;;;;;5107101;28;20402;-83
2022/01/22 12:29:36;;;;;;;2.80;2.60;;;20.60;57.80;;;;;;5101858;28;20500;-83
2022/01/22 12:32:32;;;;;;;6.27;4.50;;;20.60;58.50;;;;;;5081898;28;20453;-80
2022/01/22 12:35:05;;;;;;;6.70;4.20;;;20.60;56.60;;;;;;5077767;28;20442;-82
2022/01/22 12:37:38;;;;;;;4.87;4.37;;;20.20;57.00;;;;;;5078595;28;20454;-81
2022/01/22 12:40:09;;;;;;;6.20;3.97;;;20.50;58.30;;;;;;5078212;28;20433;-82
2022/01/22 12:42:53;;;;;;;6.23;3.80;;;20.70;58.20;;;;;;5078272;28;20501;-82
2022/01/22 12:45:22;;;;;;;7.10;3.50;;;20.70;57.50;;;;;;5078012;28;20453;-81
2022/01/22 12:47:50;;;;;;;2.53;2.33;;;20.70;56.90;;;;;;5077314;28;20453;-83
2022/01/22 12:50:27;;;;;;;3.30;1.87;;;20.40;54.30;;;;;;5076558;28;20561;-82
2022/01/22 12:53:01;;;;;;;2.53;1.60;;;19.50;55.00;;;;;;5078169;28;20453;-83
2022/01/22 12:55:50;;;;;;;6.53;2.10;;;19.00;55.20;;;;;;5076209;28;20457;-83
2022/01/22 12:58:24;;;;;;;1.77;1.53;;;18.80;56.20;;;;;;5076360;28;20505;-82
2022/01/22 13:00:53;;;;;;;3.93;1.50;;;18.60;55.60;;;;;;5077874;28;20438;-83
2022/01/22 13:03:34;;;;;;;5.03;1.80;;;18.40;55.50;;;;;;5078762;28;20465;-83
2022/01/22 13:06:02;;;;;;;4.37;1.80;;;18.10;56.00;;;;;;5075876;28;20525;-82
2022/01/22 13:08:31;;;;;;;2.30;1.60;;;18.00;56.30;;;;;;5075937;28;20481;-83
2022/01/22 13:11:01;;;;;;;2.93;1.33;;;18.20;56.40;;;;;;5078258;28;20465;-83
2022/01/22 13:13:35;;;;;;;2.20;1.40;;;17.90;56.10;;;;;;5075779;28;20514;-83
2022/01/22 13:16:04;;;;;;;6.50;1.80;;;17.90;55.90;;;;;;5074548;28;20468;-85
2022/01/22 13:18:49;;;;;;;3.73;1.27;;;17.90;56.60;;;;;;5073127;28;20452;-87
2022/01/22 13:21:17;;;;;;;1.30;1.20;;;18.80;56.90;;;;;;5066913;28;20528;-81
2022/01/22 13:23:47;;;;;;;1.13;1.03;;;19.20;55.80;;;;;;5075568;28;20990;-84
2022/01/22 13:26:17;;;;;;;3.17;1.50;;;19.50;55.00;;;;;;5073532;28;20453;-83
2022/01/22 13:28:45;;;;;;;1.90;1.57;;;19.70;54.80;;;;;;5076960;28;20449;-84
2022/01/22 13:31:14;;;;;;;3.23;1.70;;;19.70;54.60;;;;;;5072722;28;20548;-86
2022/01/22 13:33:51;;;;;;;1.63;1.23;;;19.80;54.60;;;;;;5072125;28;20499;-86
2022/01/22 13:36:27;;;;;;;1.73;1.60;;;19.90;54.40;;;;;;5072320;28;20435;-83
2022/01/22 13:39:32;;;;;;;5.07;1.23;;;19.80;54.30;;;;;;5070043;28;20610;-81
2022/01/22 13:45:07;;;;;;;3.80;1.67;;;19.70;54.70;;;;;;5073335;28;20473;-83
2022/01/22 13:47:40;;;;;;;4.07;1.30;;;19.60;54.80;;;;;;5071780;28;20507;-82
2022/01/22 13:50:08;;;;;;;2.80;1.20;;;19.50;55.00;;;;;;5068645;28;20553;-83
2022/01/22 13:52:36;;;;;;;1.73;1.50;;;19.40;55.40;;;;;;5083251;28;20469;-84
2022/01/22 13:55:04;;;;;;;1.40;1.30;;;19.30;55.40;;;;;;5084018;28;20449;-83
2022/01/22 13:57:37;;;;;;;1.50;1.30;;;19.30;55.70;;;;;;5082413;28;20485;-83
2022/01/22 14:00:10;;;;;;;1.33;1.23;;;19.30;55.80;;;;;;5080986;28;20457;-81
2022/01/22 14:03:03;;;;;;;2.90;1.10;;;19.20;55.90;;;;;;5081080;28;20494;-82
2022/01/22 14:05:32;;;;;;;2.40;1.67;;;19.20;56.00;;;;;;5079555;28;20465;-82
2022/01/22 14:08:01;;;;;;;2.23;1.50;;;19.10;56.10;;;;;;5081617;28;20465;-82
2022/01/22 14:10:31;;;;;;;1.30;1.20;;;19.00;56.30;;;;;;5082651;28;20466;-82
2022/01/22 14:13:06;;;;;;;2.47;1.90;;;19.00;56.40;;;;;;5082278;28;20481;-82
2022/01/22 14:15:39;;;;;;;1.70;1.60;;;19.00;56.60;;;;;;5085454;28;20457;-81
2022/01/22 14:18:15;;;;;;;3.07;1.53;;;19.00;56.70;;;;;;5074562;28;20442;-84